Time;durP1;ratioP1;P1;durP2;ratioP2;P2;SDS_P1;SDS_P2;PMS_P1;PMS_P2;Temp;Humidity;BMP_temperature;BMP_pressure;BME280_temperature;BME280_humidity;BME280_pressure;Samples;Min_cycle;Max_cycle;Signal;HPM_P1;HPM_P2
2022/06/16 00:00:00;;;;;;;0.2;0.2;;;;;;;19.2;100.0;101610;;;;
2022/06/16 00:01:00;;;;;;;0.2;0.2;;;;;;;19.2;100.0;101610;;;;
2022/06/16 00:02:00;;;;;;;0.2;0.2;;;;;;;19.0;100.0;101600;;;;
2022/06/16 00:03:00;;;;;;;0.2;0.2;;;;;;;19.0;100.0;101600;;;;
2022/06/16 00:04:00;;;;;;;0.2;0.2;;;;;;;19.3;100.0;101600;;;;
2022/06/16 00:05:00;;;;;;;0.2;0.2;;;;;;;19.3;100.0;101600;;;;
2022/06/16 00:06:00;;;;;;;0.2;0.2;;;;;;;19.2;100.0;101600;;;;
2022/06/16 00:07:00;;;;;;;0.2;0.2;;;;;;;19.2;100.0;101600;;;;
2022/06/16 00:08:03;;;;;;;0.2;0.2;;;;;;;19.4;100.0;101610;;;;
2022/06/16 00:09:00;;;;;;;0.2;0.2;;;;;;;19.4;100.0;101610;;;;
2022/06/16 00:10:00;;;;;;;0.2;0.2;;;;;;;19.3;100.0;101610;;;;
2022/06/16 00:12:00;;;;;;;0.2;0.2;;;;;;;19.4;100.0;101610;;;;
2022/06/16 00:13:00;;;;;;;0.2;0.2;;;;;;;19.4;100.0;101610;;;;
2022/06/16 00:14:00;;;;;;;0.2;0.2;;;;;;;19.4;100.0;101610;;;;
2022/06/16 00:15:00;;;;;;;0.2;0.2;;;;;;;19.4;100.0;101610;;;;
2022/06/16 00:16:00;;;;;;;0.2;0.2;;;;;;;19.2;100.0;101610;;;;
2022/06/16 00:17:00;;;;;;;0.2;0.2;;;;;;;19.2;100.0;101610;;;;
2022/06/16 00:18:00;;;;;;;0.2;0.2;;;;;;;19.0;100.0;101610;;;;
2022/06/16 00:19:00;;;;;;;0.2;0.2;;;;;;;19.0;100.0;101610;;;;
2022/06/16 00:20:04;;;;;;;0.2;0.2;;;;;;;19.1;100.0;101610;;;;
2022/06/16 00:21:00;;;;;;;0.2;0.2;;;;;;;19.1;100.0;101610;;;;
2022/06/16 00:22:00;;;;;;;0.2;0.2;;;;;;;19.0;100.0;101610;;;;
2022/06/16 00:23:00;;;;;;;0.2;0.2;;;;;;;19.0;100.0;101610;;;;
2022/06/16 00:24:00;;;;;;;0.2;0.2;;;;;;;19.0;100.0;101600;;;;
2022/06/16 00:25:00;;;;;;;0.2;0.2;;;;;;;19.0;100.0;101600;;;;
2022/06/16 00:26:00;;;;;;;0.2;0.2;;;;;;;18.9;100.0;101600;;;;
2022/06/16 00:27:00;;;;;;;0.2;0.2;;;;;;;18.9;100.0;101600;;;;
2022/06/16 00:28:00;;;;;;;0.2;0.2;;;;;;;19.0;100.0;101600;;;;
2022/06/16 00:29:02;;;;;;;0.2;0.2;;;;;;;19.0;100.0;101600;;;;
2022/06/16 00:30:00;;;;;;;0.2;0.2;;;;;;;19.1;100.0;101600;;;;
2022/06/16 00:31:01;;;;;;;0.2;0.2;;;;;;;19.1;100.0;101600;;;;
2022/06/16 00:32:00;;;;;;;0.3;0.3;;;;;;;19.1;100.0;101600;;;;
2022/06/16 00:33:00;;;;;;;0.3;0.3;;;;;;;19.1;100.0;101600;;;;
2022/06/16 00:34:00;;;;;;;0.3;0.3;;;;;;;19.0;100.0;101610;;;;
2022/06/16 00:35:00;;;;;;;0.3;0.3;;;;;;;19.0;100.0;101610;;;;
2022/06/16 00:36:00;;;;;;;0.3;0.3;;;;;;;19.1;100.0;101610;;;;
2022/06/16 00:37:00;;;;;;;0.3;0.3;;;;;;;19.1;100.0;101610;;;;
2022/06/16 00:38:00;;;;;;;0.3;0.3;;;;;;;18.9;100.0;101610;;;;
2022/06/16 00:39:00;;;;;;;0.3;0.3;;;;;;;18.9;100.0;101610;;;;
2022/06/16 00:40:00;;;;;;;0.3;0.3;;;;;;;19.0;100.0;101620;;;;
2022/06/16 00:41:00;;;;;;;0.3;0.3;;;;;;;19.0;100.0;101620;;;;
2022/06/16 00:42:09;;;;;;;0.3;0.3;;;;;;;19.1;100.0;101620;;;;
2022/06/16 00:43:00;;;;;;;0.3;0.3;;;;;;;19.1;100.0;101620;;;;
2022/06/16 00:44:01;;;;;;;0.3;0.3;;;;;;;19.1;100.0;101630;;;;
2022/06/16 00:45:00;;;;;;;0.3;0.3;;;;;;;19.1;100.0;101630;;;;
2022/06/16 00:46:04;;;;;;;0.3;0.3;;;;;;;19.1;100.0;101620;;;;
2022/06/16 00:47:00;;;;;;;0.3;0.3;;;;;;;19.1;100.0;101620;;;;
2022/06/16 00:48:00;;;;;;;0.3;0.3;;;;;;;19.1;100.0;101620;;;;
2022/06/16 00:49:03;;;;;;;0.3;0.3;;;;;;;19.1;100.0;101620;;;;
2022/06/16 00:50:03;;;;;;;0.3;0.3;;;;;;;19.1;100.0;101620;;;;
2022/06/16 00:51:03;;;;;;;0.3;0.3;;;;;;;19.1;100.0;101620;;;;
2022/06/16 00:52:02;;;;;;;0.9;0.6;;;;;;;19.2;100.0;101620;;;;
2022/06/16 00:53:01;;;;;;;0.9;0.6;;;;;;;19.2;100.0;101620;;;;
2022/06/16 00:54:03;;;;;;;0.9;0.6;;;;;;;18.9;100.0;101620;;;;
2022/06/16 00:55:05;;;;;;;0.9;0.6;;;;;;;18.9;100.0;101620;;;;
2022/06/16 00:56:00;;;;;;;0.9;0.6;;;;;;;18.9;100.0;101620;;;;
2022/06/16 00:57:07;;;;;;;0.9;0.6;;;;;;;18.9;100.0;101620;;;;
2022/06/16 00:58:00;;;;;;;0.9;0.6;;;;;;;18.8;100.0;101620;;;;
2022/06/16 00:59:02;;;;;;;0.9;0.6;;;;;;;18.8;100.0;101620;;;;
2022/06/16 01:00:00;;;;;;;0.9;0.6;;;;;;;18.8;100.0;101620;;;;
2022/06/16 01:01:00;;;;;;;0.9;0.6;;;;;;;18.8;100.0;101620;;;;
2022/06/16 01:02:00;;;;;;;0.9;0.6;;;;;;;18.6;100.0;101620;;;;
2022/06/16 01:03:00;;;;;;;0.9;0.6;;;;;;;18.6;100.0;101620;;;;
2022/06/16 01:05:00;;;;;;;0.9;0.6;;;;;;;18.7;100.0;101630;;;;
2022/06/16 01:06:01;;;;;;;0.9;0.6;;;;;;;18.7;100.0;101630;;;;
2022/06/16 01:07:08;;;;;;;0.9;0.6;;;;;;;18.7;100.0;101630;;;;
2022/06/16 01:08:00;;;;;;;0.9;0.6;;;;;;;18.6;100.0;101630;;;;
2022/06/16 01:09:03;;;;;;;0.9;0.6;;;;;;;18.6;100.0;101630;;;;
2022/06/16 01:10:00;;;;;;;0.9;0.6;;;;;;;18.8;100.0;101620;;;;
2022/06/16 01:11:06;;;;;;;0.9;0.6;;;;;;;18.8;100.0;101620;;;;
2022/06/16 01:14:03;;;;;;;0.3;0.3;;;;;;;18.7;100.0;101630;;;;
2022/06/16 01:15:01;;;;;;;0.3;0.3;;;;;;;18.7;100.0;101630;;;;
2022/06/16 01:16:10;;;;;;;0.3;0.3;;;;;;;18.7;100.0;101630;;;;
2022/06/16 01:17:03;;;;;;;0.3;0.3;;;;;;;18.7;100.0;101630;;;;
2022/06/16 01:18:10;;;;;;;0.3;0.3;;;;;;;18.6;100.0;101630;;;;
2022/06/16 01:19:10;;;;;;;0.3;0.3;;;;;;;18.6;100.0;101630;;;;
2022/06/16 01:20:05;;;;;;;0.3;0.3;;;;;;;18.4;100.0;101620;;;;
2022/06/16 01:21:07;;;;;;;0.3;0.3;;;;;;;18.4;100.0;101620;;;;
2022/06/16 01:22:06;;;;;;;0.3;0.3;;;;;;;18.6;100.0;101630;;;;
2022/06/16 01:23:10;;;;;;;0.3;0.3;;;;;;;18.6;100.0;101630;;;;
2022/06/16 01:24:07;;;;;;;0.3;0.3;;;;;;;18.4;100.0;101640;;;;
2022/06/16 01:25:07;;;;;;;0.3;0.3;;;;;;;18.4;100.0;101640;;;;
2022/06/16 01:26:10;;;;;;;0.3;0.3;;;;;;;18.5;100.0;101640;;;;
2022/06/16 01:27:10;;;;;;;0.3;0.3;;;;;;;18.5;100.0;101640;;;;
2022/06/16 01:28:00;;;;;;;0.3;0.3;;;;;;;18.6;100.0;101640;;;;
2022/06/16 01:29:07;;;;;;;0.3;0.3;;;;;;;18.6;100.0;101640;;;;
2022/06/16 01:30:00;;;;;;;0.3;0.3;;;;;;;18.4;100.0;101650;;;;
2022/06/16 01:31:03;;;;;;;0.3;0.3;;;;;;;18.4;100.0;101650;;;;
2022/06/16 01:32:11;;;;;;;0.3;0.3;;;;;;;18.5;100.0;101650;;;;
2022/06/16 01:33:10;;;;;;;0.3;0.3;;;;;;;18.5;100.0;101650;;;;
2022/06/16 01:34:10;;;;;;;0.3;0.3;;;;;;;18.5;100.0;101650;;;;
2022/06/16 01:35:07;;;;;;;0.3;0.3;;;;;;;18.5;100.0;101650;;;;
2022/06/16 01:36:07;;;;;;;0.3;0.3;;;;;;;18.4;100.0;101650;;;;
2022/06/16 01:37:03;;;;;;;0.3;0.3;;;;;;;18.4;100.0;101650;;;;
2022/06/16 01:38:10;;;;;;;0.3;0.3;;;;;;;18.4;100.0;101660;;;;
2022/06/16 01:39:01;;;;;;;0.3;0.3;;;;;;;18.4;100.0;101660;;;;
2022/06/16 01:40:00;;;;;;;0.3;0.3;;;;;;;18.5;100.0;101660;;;;
2022/06/16 01:41:00;;;;;;;0.3;0.3;;;;;;;18.5;100.0;101660;;;;
2022/06/16 01:42:10;;;;;;;0.3;0.3;;;;;;;18.3;100.0;101650;;;;
2022/06/16 01:43:05;;;;;;;0.3;0.3;;;;;;;18.3;100.0;101650;;;;
2022/06/16 01:44:01;;;;;;;0.3;0.3;;;;;;;18.1;100.0;101650;;;;
2022/06/16 01:45:06;;;;;;;0.3;0.3;;;;;;;18.1;100.0;101650;;;;
2022/06/16 01:46:00;;;;;;;0.3;0.3;;;;;;;18.3;100.0;101650;;;;
2022/06/16 01:47:04;;;;;;;0.3;0.3;;;;;;;18.3;100.0;101650;;;;
2022/06/16 01:48:01;;;;;;;0.3;0.3;;;;;;;18.1;100.0;101650;;;;
2022/06/16 01:49:03;;;;;;;0.3;0.3;;;;;;;18.1;100.0;101650;;;;
2022/06/16 01:50:04;;;;;;;0.3;0.3;;;;;;;18.0;100.0;101660;;;;
2022/06/16 01:51:06;;;;;;;0.3;0.3;;;;;;;18.0;100.0;101660;;;;
2022/06/16 01:52:02;;;;;;;0.3;0.3;;;;;;;18.2;100.0;101660;;;;
2022/06/16 01:53:03;;;;;;;0.3;0.3;;;;;;;18.2;100.0;101660;;;;
2022/06/16 01:54:07;;;;;;;0.3;0.3;;;;;;;18.2;100.0;101660;;;;
2022/06/16 01:55:02;;;;;;;0.3;0.3;;;;;;;18.2;100.0;101660;;;;
2022/06/16 01:56:10;;;;;;;0.3;0.3;;;;;;;18.0;100.0;101660;;;;
2022/06/16 01:57:10;;;;;;;0.3;0.3;;;;;;;18.0;100.0;101660;;;;
2022/06/16 01:58:04;;;;;;;0.3;0.3;;;;;;;18.2;100.0;101660;;;;
2022/06/16 01:59:02;;;;;;;0.3;0.3;;;;;;;18.2;100.0;101660;;;;
2022/06/16 02:00:05;;;;;;;0.3;0.3;;;;;;;17.9;100.0;101650;;;;
2022/06/16 02:01:02;;;;;;;0.3;0.3;;;;;;;17.9;100.0;101650;;;;
2022/06/16 02:02:03;;;;;;;0.3;0.3;;;;;;;18.0;100.0;101660;;;;
2022/06/16 02:03:05;;;;;;;0.3;0.3;;;;;;;18.0;100.0;101660;;;;
2022/06/16 02:04:06;;;;;;;0.3;0.3;;;;;;;17.9;100.0;101660;;;;
2022/06/16 02:05:10;;;;;;;0.3;0.3;;;;;;;17.9;100.0;101660;;;;
2022/06/16 02:06:04;;;;;;;0.3;0.3;;;;;;;18.0;100.0;101660;;;;
2022/06/16 02:07:03;;;;;;;0.3;0.3;;;;;;;18.0;100.0;101660;;;;
2022/06/16 02:08:03;;;;;;;0.3;0.3;;;;;;;18.0;100.0;101650;;;;
2022/06/16 02:09:05;;;;;;;0.3;0.3;;;;;;;18.0;100.0;101650;;;;
2022/06/16 02:10:04;;;;;;;0.3;0.3;;;;;;;17.9;100.0;101650;;;;
2022/06/16 02:11:08;;;;;;;0.3;0.3;;;;;;;17.9;100.0;101650;;;;
2022/06/16 02:12:03;;;;;;;0.3;0.3;;;;;;;17.8;100.0;101650;;;;
2022/06/16 02:13:04;;;;;;;0.3;0.3;;;;;;;17.8;100.0;101650;;;;
2022/06/16 02:14:06;;;;;;;0.3;0.3;;;;;;;17.5;100.0;101640;;;;
2022/06/16 02:15:03;;;;;;;0.3;0.3;;;;;;;17.5;100.0;101640;;;;
2022/06/16 02:16:00;;;;;;;0.3;0.3;;;;;;;17.5;100.0;101650;;;;
2022/06/16 02:17:01;;;;;;;0.3;0.3;;;;;;;17.5;100.0;101650;;;;
2022/06/16 02:18:01;;;;;;;0.3;0.3;;;;;;;17.5;100.0;101650;;;;
2022/06/16 02:19:01;;;;;;;0.3;0.3;;;;;;;17.5;100.0;101650;;;;
2022/06/16 02:20:00;;;;;;;0.3;0.3;;;;;;;17.4;100.0;101650;;;;
2022/06/16 02:21:01;;;;;;;0.3;0.3;;;;;;;17.4;100.0;101650;;;;
2022/06/16 02:22:01;;;;;;;0.3;0.3;;;;;;;17.4;100.0;101650;;;;
2022/06/16 02:23:00;;;;;;;0.3;0.3;;;;;;;17.4;100.0;101650;;;;
2022/06/16 02:24:00;;;;;;;0.3;0.3;;;;;;;17.5;100.0;101650;;;;
2022/06/16 02:25:00;;;;;;;0.3;0.3;;;;;;;17.5;100.0;101650;;;;
2022/06/16 02:26:00;;;;;;;0.3;0.3;;;;;;;17.5;100.0;101650;;;;
2022/06/16 02:27:00;;;;;;;0.3;0.3;;;;;;;17.5;100.0;101650;;;;
2022/06/16 02:28:00;;;;;;;0.3;0.3;;;;;;;17.4;100.0;101660;;;;
2022/06/16 02:29:01;;;;;;;0.3;0.3;;;;;;;17.4;100.0;101660;;;;
2022/06/16 02:30:00;;;;;;;0.3;0.3;;;;;;;17.4;100.0;101670;;;;
2022/06/16 02:31:06;;;;;;;0.4;0.4;;;;;;;17.4;100.0;101670;;;;
2022/06/16 02:32:00;;;;;;;0.4;0.4;;;;;;;17.4;100.0;101670;;;;
2022/06/16 02:33:08;;;;;;;0.4;0.4;;;;;;;17.4;100.0;101670;;;;
2022/06/16 02:34:00;;;;;;;0.4;0.4;;;;;;;17.6;100.0;101670;;;;
2022/06/16 02:35:10;;;;;;;0.4;0.4;;;;;;;17.6;100.0;101670;;;;
2022/06/16 02:36:05;;;;;;;0.4;0.4;;;;;;;17.3;100.0;101670;;;;
2022/06/16 02:37:08;;;;;;;0.4;0.4;;;;;;;17.3;100.0;101670;;;;
2022/06/16 02:38:07;;;;;;;0.4;0.4;;;;;;;17.5;100.0;101670;;;;
2022/06/16 02:39:09;;;;;;;0.4;0.4;;;;;;;17.5;100.0;101670;;;;
2022/06/16 02:40:10;;;;;;;0.4;0.4;;;;;;;17.6;100.0;101670;;;;
2022/06/16 02:41:10;;;;;;;0.4;0.4;;;;;;;17.6;100.0;101670;;;;
2022/06/16 02:42:08;;;;;;;0.4;0.4;;;;;;;17.6;100.0;101670;;;;
2022/06/16 02:43:07;;;;;;;0.4;0.4;;;;;;;17.6;100.0;101670;;;;
2022/06/16 02:44:04;;;;;;;0.4;0.4;;;;;;;17.6;100.0;101680;;;;
2022/06/16 02:45:07;;;;;;;0.4;0.4;;;;;;;17.6;100.0;101680;;;;
2022/06/16 02:46:00;;;;;;;0.4;0.4;;;;;;;17.6;100.0;101690;;;;
2022/06/16 02:47:10;;;;;;;0.4;0.4;;;;;;;17.6;100.0;101690;;;;
2022/06/16 02:48:05;;;;;;;0.4;0.4;;;;;;;17.6;100.0;101700;;;;
2022/06/16 02:49:03;;;;;;;0.4;0.4;;;;;;;17.6;100.0;101700;;;;
2022/06/16 02:50:04;;;;;;;0.4;0.4;;;;;;;17.5;100.0;101700;;;;
2022/06/16 02:51:10;;;;;;;2.2;0.5;;;;;;;17.5;100.0;101700;;;;
2022/06/16 02:52:00;;;;;;;2.2;0.5;;;;;;;17.6;100.0;101700;;;;
2022/06/16 02:53:08;;;;;;;2.2;0.5;;;;;;;17.6;100.0;101700;;;;
2022/06/16 02:54:10;;;;;;;2.2;0.5;;;;;;;17.5;100.0;101700;;;;
2022/06/16 02:55:05;;;;;;;2.2;0.5;;;;;;;17.5;100.0;101700;;;;
2022/06/16 02:56:05;;;;;;;2.2;0.5;;;;;;;17.5;100.0;101700;;;;
2022/06/16 02:57:05;;;;;;;2.2;0.5;;;;;;;17.5;100.0;101700;;;;
2022/06/16 02:58:01;;;;;;;2.2;0.5;;;;;;;17.5;100.0;101700;;;;
2022/06/16 02:59:03;;;;;;;2.2;0.5;;;;;;;17.5;100.0;101700;;;;
2022/06/16 03:00:07;;;;;;;2.2;0.5;;;;;;;17.4;100.0;101700;;;;
2022/06/16 03:01:01;;;;;;;2.2;0.5;;;;;;;17.4;100.0;101700;;;;
2022/06/16 03:02:02;;;;;;;2.2;0.5;;;;;;;17.4;100.0;101700;;;;
2022/06/16 03:03:10;;;;;;;2.2;0.5;;;;;;;17.4;100.0;101700;;;;
2022/06/16 03:04:01;;;;;;;2.2;0.5;;;;;;;17.4;100.0;101700;;;;
2022/06/16 03:05:00;;;;;;;2.2;0.5;;;;;;;17.4;100.0;101700;;;;
2022/06/16 03:06:00;;;;;;;2.2;0.5;;;;;;;17.4;100.0;101710;;;;
2022/06/16 03:07:00;;;;;;;2.2;0.5;;;;;;;17.4;100.0;101710;;;;
2022/06/16 03:08:00;;;;;;;2.2;0.5;;;;;;;17.4;100.0;101710;;;;
2022/06/16 03:09:04;;;;;;;2.2;0.5;;;;;;;17.4;100.0;101710;;;;
2022/06/16 03:10:00;;;;;;;2.2;0.5;;;;;;;17.4;100.0;101720;;;;
2022/06/16 03:11:01;;;;;;;0.5;0.5;;;;;;;17.4;100.0;101720;;;;
2022/06/16 03:12:00;;;;;;;0.5;0.5;;;;;;;17.3;100.0;101720;;;;
2022/06/16 03:13:00;;;;;;;0.5;0.5;;;;;;;17.3;100.0;101720;;;;
2022/06/16 03:14:00;;;;;;;0.5;0.5;;;;;;;17.2;100.0;101720;;;;
2022/06/16 03:15:00;;;;;;;0.5;0.5;;;;;;;17.2;100.0;101720;;;;
2022/06/16 03:16:01;;;;;;;0.5;0.5;;;;;;;17.2;100.0;101710;;;;
2022/06/16 03:17:01;;;;;;;0.5;0.5;;;;;;;17.2;100.0;101710;;;;
2022/06/16 03:18:00;;;;;;;0.5;0.5;;;;;;;17.1;100.0;101710;;;;
2022/06/16 03:19:00;;;;;;;0.5;0.5;;;;;;;17.1;100.0;101710;;;;
2022/06/16 03:20:00;;;;;;;0.5;0.5;;;;;;;17.0;100.0;101710;;;;
2022/06/16 03:21:00;;;;;;;0.5;0.5;;;;;;;17.0;100.0;101710;;;;
2022/06/16 03:22:00;;;;;;;0.5;0.5;;;;;;;16.9;100.0;101710;;;;
2022/06/16 03:23:00;;;;;;;0.5;0.5;;;;;;;16.9;100.0;101710;;;;
2022/06/16 03:24:00;;;;;;;0.5;0.5;;;;;;;17.1;100.0;101710;;;;
2022/06/16 03:25:00;;;;;;;0.5;0.5;;;;;;;17.1;100.0;101710;;;;
2022/06/16 03:26:00;;;;;;;0.5;0.5;;;;;;;16.9;100.0;101710;;;;
2022/06/16 03:27:00;;;;;;;0.5;0.5;;;;;;;16.9;100.0;101710;;;;
2022/06/16 03:28:00;;;;;;;0.5;0.5;;;;;;;16.9;100.0;101710;;;;
2022/06/16 03:29:00;;;;;;;0.5;0.5;;;;;;;16.9;100.0;101710;;;;
2022/06/16 03:30:00;;;;;;;0.5;0.5;;;;;;;16.9;100.0;101710;;;;
2022/06/16 03:31:00;;;;;;;0.3;0.3;;;;;;;16.9;100.0;101710;;;;
2022/06/16 03:32:00;;;;;;;0.3;0.3;;;;;;;16.8;100.0;101710;;;;
2022/06/16 03:33:00;;;;;;;0.3;0.3;;;;;;;16.8;100.0;101710;;;;
2022/06/16 03:34:00;;;;;;;0.3;0.3;;;;;;;16.7;100.0;101710;;;;
2022/06/16 03:35:00;;;;;;;0.3;0.3;;;;;;;16.7;100.0;101710;;;;
2022/06/16 03:36:00;;;;;;;0.3;0.3;;;;;;;16.8;100.0;101710;;;;
2022/06/16 03:37:00;;;;;;;0.3;0.3;;;;;;;16.8;100.0;101710;;;;
2022/06/16 03:38:05;;;;;;;0.3;0.3;;;;;;;16.6;100.0;101710;;;;
2022/06/16 03:39:01;;;;;;;0.3;0.3;;;;;;;16.6;100.0;101710;;;;
2022/06/16 03:40:00;;;;;;;0.3;0.3;;;;;;;16.7;100.0;101710;;;;
2022/06/16 03:41:00;;;;;;;0.3;0.3;;;;;;;16.7;100.0;101710;;;;
2022/06/16 03:42:00;;;;;;;0.3;0.3;;;;;;;16.7;100.0;101710;;;;
2022/06/16 03:43:00;;;;;;;0.3;0.3;;;;;;;16.7;100.0;101710;;;;
2022/06/16 03:44:00;;;;;;;0.3;0.3;;;;;;;16.5;100.0;101720;;;;
2022/06/16 03:45:00;;;;;;;0.3;0.3;;;;;;;16.5;100.0;101720;;;;
2022/06/16 03:46:00;;;;;;;0.3;0.3;;;;;;;16.5;100.0;101730;;;;
2022/06/16 03:47:00;;;;;;;0.3;0.3;;;;;;;16.5;100.0;101730;;;;
2022/06/16 03:48:00;;;;;;;0.3;0.3;;;;;;;16.5;100.0;101740;;;;
2022/06/16 03:49:01;;;;;;;0.3;0.3;;;;;;;16.5;100.0;101740;;;;
2022/06/16 03:50:00;;;;;;;0.3;0.3;;;;;;;16.6;100.0;101740;;;;
2022/06/16 03:51:00;;;;;;;0.4;0.4;;;;;;;16.6;100.0;101740;;;;
2022/06/16 03:52:00;;;;;;;0.4;0.4;;;;;;;16.4;100.0;101750;;;;
2022/06/16 03:53:00;;;;;;;0.4;0.4;;;;;;;16.4;100.0;101750;;;;
2022/06/16 03:54:00;;;;;;;0.4;0.4;;;;;;;16.3;100.0;101750;;;;
2022/06/16 03:55:00;;;;;;;0.4;0.4;;;;;;;16.3;100.0;101750;;;;
2022/06/16 03:56:00;;;;;;;0.4;0.4;;;;;;;16.5;100.0;101750;;;;
2022/06/16 03:57:00;;;;;;;0.4;0.4;;;;;;;16.5;100.0;101750;;;;
2022/06/16 03:58:00;;;;;;;0.4;0.4;;;;;;;16.5;100.0;101750;;;;
2022/06/16 03:59:00;;;;;;;0.4;0.4;;;;;;;16.5;100.0;101750;;;;
2022/06/16 04:00:00;;;;;;;0.4;0.4;;;;;;;16.6;100.0;101750;;;;
2022/06/16 04:01:00;;;;;;;0.4;0.4;;;;;;;16.6;100.0;101750;;;;
2022/06/16 04:02:00;;;;;;;0.4;0.4;;;;;;;16.4;100.0;101760;;;;
2022/06/16 04:04:00;;;;;;;0.4;0.4;;;;;;;16.5;100.0;101760;;;;
2022/06/16 04:05:01;;;;;;;0.4;0.4;;;;;;;16.5;100.0;101760;;;;
2022/06/16 04:06:00;;;;;;;0.4;0.4;;;;;;;16.5;100.0;101760;;;;
2022/06/16 04:07:00;;;;;;;0.4;0.4;;;;;;;16.5;100.0;101760;;;;
2022/06/16 04:08:00;;;;;;;0.4;0.4;;;;;;;16.5;100.0;101760;;;;
2022/06/16 04:09:00;;;;;;;0.4;0.4;;;;;;;16.5;100.0;101760;;;;
2022/06/16 04:10:00;;;;;;;0.4;0.4;;;;;;;16.5;100.0;101760;;;;
2022/06/16 04:11:26;;;;;;;0.4;0.4;;;;;;;16.5;100.0;101760;;;;
2022/06/16 04:12:00;;;;;;;0.4;0.4;;;;;;;16.6;100.0;101760;;;;
2022/06/16 04:13:00;;;;;;;0.4;0.4;;;;;;;16.6;100.0;101760;;;;
2022/06/16 04:14:09;;;;;;;0.4;0.4;;;;;;;16.5;100.0;101770;;;;
2022/06/16 04:15:00;;;;;;;0.4;0.4;;;;;;;16.5;100.0;101770;;;;
2022/06/16 04:16:00;;;;;;;0.4;0.4;;;;;;;16.5;100.0;101770;;;;
2022/06/16 04:17:00;;;;;;;0.4;0.4;;;;;;;16.5;100.0;101770;;;;
2022/06/16 04:18:00;;;;;;;0.4;0.4;;;;;;;16.6;100.0;101770;;;;
2022/06/16 04:19:00;;;;;;;0.4;0.4;;;;;;;16.6;100.0;101770;;;;
2022/06/16 04:21:00;;;;;;;0.4;0.4;;;;;;;16.4;100.0;101770;;;;
2022/06/16 04:22:00;;;;;;;0.4;0.4;;;;;;;16.3;100.0;101770;;;;
2022/06/16 04:23:00;;;;;;;0.4;0.4;;;;;;;16.3;100.0;101770;;;;
2022/06/16 04:24:00;;;;;;;0.4;0.4;;;;;;;16.5;100.0;101760;;;;
2022/06/16 04:25:00;;;;;;;0.4;0.4;;;;;;;16.5;100.0;101760;;;;
2022/06/16 04:26:00;;;;;;;0.4;0.4;;;;;;;16.5;100.0;101770;;;;
2022/06/16 04:27:00;;;;;;;0.4;0.4;;;;;;;16.5;100.0;101770;;;;
2022/06/16 04:28:01;;;;;;;0.4;0.4;;;;;;;16.3;100.0;101770;;;;
2022/06/16 04:29:00;;;;;;;0.4;0.4;;;;;;;16.3;100.0;101770;;;;
2022/06/16 04:30:00;;;;;;;0.4;0.4;;;;;;;16.3;100.0;101770;;;;
2022/06/16 04:31:00;;;;;;;0.3;0.3;;;;;;;16.3;100.0;101770;;;;
2022/06/16 04:32:00;;;;;;;0.3;0.3;;;;;;;16.2;100.0;101770;;;;
2022/06/16 04:33:00;;;;;;;0.3;0.3;;;;;;;16.2;100.0;101770;;;;
2022/06/16 04:34:00;;;;;;;0.3;0.3;;;;;;;16.3;100.0;101770;;;;
2022/06/16 04:35:00;;;;;;;0.3;0.3;;;;;;;16.3;100.0;101770;;;;
2022/06/16 04:36:00;;;;;;;0.3;0.3;;;;;;;16.1;100.0;101780;;;;
2022/06/16 04:37:00;;;;;;;0.3;0.3;;;;;;;16.1;100.0;101780;;;;
2022/06/16 04:38:00;;;;;;;0.3;0.3;;;;;;;16.1;100.0;101780;;;;
2022/06/16 04:39:00;;;;;;;0.3;0.3;;;;;;;16.1;100.0;101780;;;;
2022/06/16 04:40:00;;;;;;;0.3;0.3;;;;;;;15.9;100.0;101780;;;;
2022/06/16 04:41:00;;;;;;;0.3;0.3;;;;;;;15.9;100.0;101780;;;;
2022/06/16 04:42:00;;;;;;;0.3;0.3;;;;;;;16.1;100.0;101780;;;;
2022/06/16 04:43:00;;;;;;;0.3;0.3;;;;;;;16.1;100.0;101780;;;;
2022/06/16 04:44:00;;;;;;;0.3;0.3;;;;;;;16.1;100.0;101790;;;;
2022/06/16 04:45:00;;;;;;;0.3;0.3;;;;;;;16.1;100.0;101790;;;;
2022/06/16 04:46:00;;;;;;;0.3;0.3;;;;;;;16.0;100.0;101790;;;;
2022/06/16 04:47:02;;;;;;;0.3;0.3;;;;;;;16.0;100.0;101790;;;;
2022/06/16 04:48:00;;;;;;;0.3;0.3;;;;;;;16.0;100.0;101790;;;;
2022/06/16 04:49:00;;;;;;;0.3;0.3;;;;;;;16.0;100.0;101790;;;;
2022/06/16 04:50:00;;;;;;;0.3;0.3;;;;;;;16.0;100.0;101800;;;;
2022/06/16 04:51:01;;;;;;;0.3;0.3;;;;;;;16.0;100.0;101800;;;;
2022/06/16 04:52:00;;;;;;;0.3;0.3;;;;;;;16.1;100.0;101800;;;;
2022/06/16 04:53:00;;;;;;;0.3;0.3;;;;;;;16.1;100.0;101800;;;;
2022/06/16 04:54:00;;;;;;;0.3;0.3;;;;;;;16.0;100.0;101800;;;;
2022/06/16 04:55:06;;;;;;;0.3;0.3;;;;;;;16.0;100.0;101800;;;;
2022/06/16 04:56:01;;;;;;;0.3;0.3;;;;;;;15.8;100.0;101800;;;;
2022/06/16 04:57:00;;;;;;;0.3;0.3;;;;;;;15.8;100.0;101800;;;;
2022/06/16 04:58:01;;;;;;;0.3;0.3;;;;;;;16.0;100.0;101800;;;;
2022/06/16 04:59:00;;;;;;;0.3;0.3;;;;;;;16.0;100.0;101800;;;;
2022/06/16 05:00:10;;;;;;;0.3;0.3;;;;;;;16.0;100.0;101800;;;;
2022/06/16 05:01:10;;;;;;;0.3;0.3;;;;;;;16.0;100.0;101800;;;;
2022/06/16 05:02:00;;;;;;;0.3;0.3;;;;;;;16.0;100.0;101810;;;;
2022/06/16 05:03:00;;;;;;;0.3;0.3;;;;;;;16.0;100.0;101810;;;;
2022/06/16 05:04:00;;;;;;;0.3;0.3;;;;;;;16.1;100.0;101810;;;;
2022/06/16 05:05:00;;;;;;;0.3;0.3;;;;;;;16.1;100.0;101810;;;;
2022/06/16 05:06:00;;;;;;;0.3;0.3;;;;;;;16.1;100.0;101810;;;;
2022/06/16 05:07:01;;;;;;;0.3;0.3;;;;;;;16.1;100.0;101810;;;;
2022/06/16 05:08:00;;;;;;;0.3;0.3;;;;;;;16.2;100.0;101810;;;;
2022/06/16 05:09:00;;;;;;;0.3;0.3;;;;;;;16.2;100.0;101810;;;;
2022/06/16 05:10:00;;;;;;;0.3;0.3;;;;;;;16.2;100.0;101810;;;;
2022/06/16 05:11:00;;;;;;;0.6;0.6;;;;;;;16.2;100.0;101810;;;;
2022/06/16 05:12:00;;;;;;;0.6;0.6;;;;;;;16.3;100.0;101810;;;;
2022/06/16 05:13:00;;;;;;;0.6;0.6;;;;;;;16.3;100.0;101810;;;;
2022/06/16 05:14:00;;;;;;;0.6;0.6;;;;;;;16.3;100.0;101810;;;;
2022/06/16 05:15:00;;;;;;;0.6;0.6;;;;;;;16.3;100.0;101810;;;;
2022/06/16 05:16:00;;;;;;;0.6;0.6;;;;;;;16.3;100.0;101810;;;;
2022/06/16 05:17:00;;;;;;;0.6;0.6;;;;;;;16.3;100.0;101810;;;;
2022/06/16 05:18:00;;;;;;;0.6;0.6;;;;;;;16.3;100.0;101820;;;;
2022/06/16 05:19:04;;;;;;;0.6;0.6;;;;;;;16.3;100.0;101820;;;;
2022/06/16 05:20:00;;;;;;;0.6;0.6;;;;;;;16.4;100.0;101820;;;;
2022/06/16 05:21:04;;;;;;;0.6;0.6;;;;;;;16.4;100.0;101820;;;;
2022/06/16 05:22:01;;;;;;;0.6;0.6;;;;;;;16.4;100.0;101830;;;;
2022/06/16 05:23:00;;;;;;;0.6;0.6;;;;;;;16.4;100.0;101830;;;;
2022/06/16 05:24:00;;;;;;;0.6;0.6;;;;;;;16.4;100.0;101830;;;;
2022/06/16 05:25:00;;;;;;;0.6;0.6;;;;;;;16.4;100.0;101830;;;;
2022/06/16 05:26:00;;;;;;;0.6;0.6;;;;;;;16.5;100.0;101840;;;;
2022/06/16 05:27:03;;;;;;;0.6;0.6;;;;;;;16.5;100.0;101840;;;;
2022/06/16 05:28:00;;;;;;;0.6;0.6;;;;;;;16.5;100.0;101840;;;;
2022/06/16 05:29:00;;;;;;;0.6;0.6;;;;;;;16.5;100.0;101840;;;;
2022/06/16 05:30:00;;;;;;;0.6;0.6;;;;;;;16.6;100.0;101840;;;;
2022/06/16 05:31:00;;;;;;;0.6;0.6;;;;;;;16.6;100.0;101840;;;;
2022/06/16 05:32:00;;;;;;;0.6;0.6;;;;;;;16.6;100.0;101850;;;;
2022/06/16 05:33:00;;;;;;;0.6;0.6;;;;;;;16.6;100.0;101850;;;;
2022/06/16 05:34:00;;;;;;;0.6;0.6;;;;;;;16.5;100.0;101850;;;;
2022/06/16 05:35:00;;;;;;;0.6;0.6;;;;;;;16.5;100.0;101850;;;;
2022/06/16 05:36:01;;;;;;;0.6;0.6;;;;;;;16.4;100.0;101850;;;;
2022/06/16 05:37:00;;;;;;;0.6;0.6;;;;;;;16.4;100.0;101850;;;;
2022/06/16 05:38:00;;;;;;;0.6;0.6;;;;;;;16.6;100.0;101850;;;;
2022/06/16 05:39:00;;;;;;;0.6;0.6;;;;;;;16.6;100.0;101850;;;;
2022/06/16 05:40:00;;;;;;;0.6;0.6;;;;;;;16.6;100.0;101850;;;;
2022/06/16 05:41:03;;;;;;;0.6;0.6;;;;;;;16.6;100.0;101850;;;;
2022/06/16 05:42:00;;;;;;;0.6;0.6;;;;;;;16.6;100.0;101850;;;;
2022/06/16 05:43:00;;;;;;;0.6;0.6;;;;;;;16.6;100.0;101850;;;;
2022/06/16 05:44:00;;;;;;;0.6;0.6;;;;;;;16.7;100.0;101860;;;;
2022/06/16 05:45:00;;;;;;;0.6;0.6;;;;;;;16.7;100.0;101860;;;;
2022/06/16 05:46:00;;;;;;;0.6;0.6;;;;;;;16.8;100.0;101860;;;;
2022/06/16 05:47:00;;;;;;;0.6;0.6;;;;;;;16.8;100.0;101860;;;;
2022/06/16 05:48:00;;;;;;;0.6;0.6;;;;;;;16.8;100.0;101860;;;;
2022/06/16 05:49:00;;;;;;;0.6;0.6;;;;;;;16.8;100.0;101860;;;;
2022/06/16 05:50:00;;;;;;;0.6;0.6;;;;;;;16.9;100.0;101860;;;;
2022/06/16 05:51:04;;;;;;;0.3;0.3;;;;;;;16.9;100.0;101860;;;;
2022/06/16 05:52:00;;;;;;;0.3;0.3;;;;;;;17.0;100.0;101850;;;;
2022/06/16 05:53:01;;;;;;;0.3;0.3;;;;;;;17.0;100.0;101850;;;;
2022/06/16 05:54:00;;;;;;;0.3;0.3;;;;;;;17.1;100.0;101860;;;;
2022/06/16 05:55:00;;;;;;;0.3;0.3;;;;;;;17.1;100.0;101860;;;;
2022/06/16 05:56:00;;;;;;;0.3;0.3;;;;;;;17.1;100.0;101860;;;;
2022/06/16 05:57:00;;;;;;;0.3;0.3;;;;;;;17.1;100.0;101860;;;;
2022/06/16 05:58:01;;;;;;;0.3;0.3;;;;;;;17.3;100.0;101860;;;;
2022/06/16 05:59:00;;;;;;;0.3;0.3;;;;;;;17.3;100.0;101860;;;;
2022/06/16 06:00:00;;;;;;;0.3;0.3;;;;;;;17.4;100.0;101860;;;;
2022/06/16 06:01:00;;;;;;;0.3;0.3;;;;;;;17.4;100.0;101860;;;;
2022/06/16 06:02:00;;;;;;;0.3;0.3;;;;;;;17.4;100.0;101860;;;;
2022/06/16 06:03:01;;;;;;;0.3;0.3;;;;;;;17.4;100.0;101860;;;;
2022/06/16 06:04:00;;;;;;;0.3;0.3;;;;;;;17.4;100.0;101860;;;;
2022/06/16 06:05:00;;;;;;;0.3;0.3;;;;;;;17.4;100.0;101860;;;;
2022/06/16 06:06:00;;;;;;;0.3;0.3;;;;;;;17.7;100.0;101860;;;;
2022/06/16 06:07:00;;;;;;;0.3;0.3;;;;;;;17.7;100.0;101860;;;;
2022/06/16 06:17:00;;;;;;;1.0;1.0;;;;;;;17.9;100.0;101860;;;;
2022/06/16 06:18:00;;;;;;;1.0;1.0;;;;;;;18.0;98.8;101860;;;;
2022/06/16 06:20:00;;;;;;;1.0;1.0;;;;;;;18.0;93.9;101860;;;;
2022/06/16 06:21:00;;;;;;;1.0;1.0;;;;;;;18.0;93.9;101860;;;;
2022/06/16 06:22:01;;;;;;;1.0;1.0;;;;;;;17.7;94.3;101870;;;;
2022/06/16 06:23:00;;;;;;;1.0;1.0;;;;;;;17.7;94.3;101870;;;;
2022/06/16 06:24:00;;;;;;;1.0;1.0;;;;;;;17.6;95.8;101860;;;;
2022/06/16 06:25:00;;;;;;;1.0;1.0;;;;;;;17.6;95.8;101860;;;;
2022/06/16 06:26:00;;;;;;;1.0;1.0;;;;;;;17.8;97.1;101870;;;;
2022/06/16 06:27:01;;;;;;;1.0;1.0;;;;;;;17.8;97.1;101870;;;;
2022/06/16 06:28:00;;;;;;;1.0;1.0;;;;;;;17.8;93.4;101870;;;;
2022/06/16 06:29:00;;;;;;;1.0;1.0;;;;;;;17.8;93.4;101870;;;;
2022/06/16 06:30:00;;;;;;;1.0;1.0;;;;;;;17.9;91.0;101870;;;;
2022/06/16 06:31:00;;;;;;;0.3;0.3;;;;;;;17.9;91.0;101870;;;;
2022/06/16 06:32:01;;;;;;;0.3;0.3;;;;;;;17.9;88.8;101860;;;;
2022/06/16 06:33:01;;;;;;;0.3;0.3;;;;;;;17.9;88.8;101860;;;;
2022/06/16 06:34:00;;;;;;;0.3;0.3;;;;;;;17.9;92.7;101860;;;;
2022/06/16 06:35:00;;;;;;;0.3;0.3;;;;;;;17.9;92.7;101860;;;;
2022/06/16 06:36:00;;;;;;;0.3;0.3;;;;;;;18.0;89.8;101860;;;;
2022/06/16 06:37:00;;;;;;;0.3;0.3;;;;;;;18.0;89.8;101860;;;;
2022/06/16 06:38:00;;;;;;;0.3;0.3;;;;;;;18.0;89.1;101870;;;;
2022/06/16 06:39:00;;;;;;;0.3;0.3;;;;;;;18.0;89.1;101870;;;;